sensor_id;sensor_type;location;lat;lon;timestamp;P1;durP1;ratioP1;P2;durP2;ratioP2
62030;SDS011;62035;52.094;5.112;2023-03-14T00:00:05;25.30;;;5.05;;
62030;SDS011;62035;52.094;5.112;2023-03-14T00:02:36;21.83;;;3.80;;
62030;SDS011;62035;52.094;5.112;2023-03-14T00:05:06;14.77;;;4.88;;
62030;SDS011;62035;52.094;5.112;2023-03-14T00:07:36;24.17;;;3.88;;
62030;SDS011;62035;52.094;5.112;2023-03-14T00:10:06;25.52;;;5.35;;
62030;SDS011;62035;52.094;5.112;2023-03-14T00:12:38;29.02;;;4.47;;
62030;SDS011;62035;52.094;5.112;2023-03-14T00:15:07;20.98;;;4.00;;
62030;SDS011;62035;52.094;5.112;2023-03-14T00:17:35;21.75;;;4.15;;
62030;SDS011;62035;52.094;5.112;2023-03-14T00:20:06;24.73;;;4.40;;
62030;SDS011;62035;52.094;5.112;2023-03-14T00:22:36;20.00;;;4.05;;
62030;SDS011;62035;52.094;5.112;2023-03-14T00:25:05;25.67;;;4.13;;
62030;SDS011;62035;52.094;5.112;2023-03-14T00:27:35;12.63;;;3.08;;
62030;SDS011;62035;52.094;5.112;2023-03-14T00:30:04;24.58;;;3.80;;
62030;SDS011;62035;52.094;5.112;2023-03-14T00:32:34;16.67;;;3.45;;
62030;SDS011;62035;52.094;5.112;2023-03-14T00:35:02;16.85;;;3.10;;
62030;SDS011;62035;52.094;5.112;2023-03-14T00:37:32;18.33;;;3.20;;
62030;SDS011;62035;52.094;5.112;2023-03-14T00:40:00;10.25;;;2.55;;
62030;SDS011;62035;52.094;5.112;2023-03-14T00:42:27;12.57;;;2.72;;
62030;SDS011;62035;52.094;5.112;2023-03-14T00:44:55;11.43;;;2.38;;
62030;SDS011;62035;52.094;5.112;2023-03-14T00:47:23;7.65;;;2.33;;
62030;SDS011;62035;52.094;5.112;2023-03-14T00:49:50;14.68;;;2.38;;
62030;SDS011;62035;52.094;5.112;2023-03-14T00:52:18;12.32;;;2.30;;
62030;SDS011;62035;52.094;5.112;2023-03-14T00:54:47;11.98;;;2.30;;
62030;SDS011;62035;52.094;5.112;2023-03-14T00:57:15;10.10;;;2.80;;
62030;SDS011;62035;52.094;5.112;2023-03-14T00:59:42;13.45;;;2.88;;
62030;SDS011;62035;52.094;5.112;2023-03-14T01:02:10;10.05;;;2.45;;
62030;SDS011;62035;52.094;5.112;2023-03-14T01:04:37;16.92;;;2.30;;
62030;SDS011;62035;52.094;5.112;2023-03-14T01:07:05;12.00;;;2.60;;
62030;SDS011;62035;52.094;5.112;2023-03-14T01:09:32;10.90;;;2.15;;
62030;SDS011;62035;52.094;5.112;2023-03-14T01:12:01;12.05;;;2.50;;
62030;SDS011;62035;52.094;5.112;2023-03-14T01:14:29;10.57;;;2.05;;
62030;SDS011;62035;52.094;5.112;2023-03-14T01:16:57;11.38;;;2.75;;
62030;SDS011;62035;52.094;5.112;2023-03-14T01:19:26;13.55;;;2.90;;
62030;SDS011;62035;52.094;5.112;2023-03-14T01:21:54;12.48;;;2.30;;
62030;SDS011;62035;52.094;5.112;2023-03-14T01:24:22;19.65;;;2.42;;
62030;SDS011;62035;52.094;5.112;2023-03-14T01:26:49;11.70;;;2.63;;
62030;SDS011;62035;52.094;5.112;2023-03-14T01:29:18;9.07;;;2.15;;
62030;SDS011;62035;52.094;5.112;2023-03-14T01:31:46;12.85;;;2.30;;
62030;SDS011;62035;52.094;5.112;2023-03-14T01:34:13;7.90;;;2.25;;
62030;SDS011;62035;52.094;5.112;2023-03-14T01:36:41;8.02;;;2.45;;
62030;SDS011;62035;52.094;5.112;2023-03-14T01:39:08;10.27;;;2.22;;
62030;SDS011;62035;52.094;5.112;2023-03-14T01:41:36;18.58;;;2.90;;
62030;SDS011;62035;52.094;5.112;2023-03-14T01:44:04;15.32;;;2.45;;
62030;SDS011;62035;52.094;5.112;2023-03-14T01:46:37;15.00;;;3.05;;
62030;SDS011;62035;52.094;5.112;2023-03-14T01:49:09;12.57;;;2.78;;
62030;SDS011;62035;52.094;5.112;2023-03-14T01:51:46;10.73;;;2.20;;
62030;SDS011;62035;52.094;5.112;2023-03-14T01:54:24;12.00;;;2.47;;
62030;SDS011;62035;52.094;5.112;2023-03-14T01:57:10;16.48;;;2.90;;
62030;SDS011;62035;52.094;5.112;2023-03-14T01:59:45;10.73;;;2.22;;
62030;SDS011;62035;52.094;5.112;2023-03-14T02:02:20;5.85;;;1.70;;
62030;SDS011;62035;52.094;5.112;2023-03-14T02:04:50;8.32;;;2.05;;
62030;SDS011;62035;52.094;5.112;2023-03-14T02:07:20;12.55;;;2.00;;
62030;SDS011;62035;52.094;5.112;2023-03-14T02:09:55;9.77;;;1.88;;
62030;SDS011;62035;52.094;5.112;2023-03-14T02:12:26;12.55;;;2.30;;
62030;SDS011;62035;52.094;5.112;2023-03-14T02:14:54;12.65;;;2.47;;
62030;SDS011;62035;52.094;5.112;2023-03-14T02:17:23;11.05;;;2.25;;
62030;SDS011;62035;52.094;5.112;2023-03-14T02:20:04;12.75;;;2.25;;
62030;SDS011;62035;52.094;5.112;2023-03-14T02:22:48;12.00;;;2.05;;
62030;SDS011;62035;52.094;5.112;2023-03-14T02:25:17;8.25;;;1.80;;
62030;SDS011;62035;52.094;5.112;2023-03-14T02:27:57;9.25;;;1.88;;
62030;SDS011;62035;52.094;5.112;2023-03-14T02:30:26;13.25;;;1.70;;
62030;SDS011;62035;52.094;5.112;2023-03-14T02:32:57;7.35;;;1.90;;
62030;SDS011;62035;52.094;5.112;2023-03-14T02:35:29;12.02;;;1.73;;
62030;SDS011;62035;52.094;5.112;2023-03-14T02:38:03;11.27;;;2.10;;
62030;SDS011;62035;52.094;5.112;2023-03-14T02:40:41;11.65;;;2.00;;
62030;SDS011;62035;52.094;5.112;2023-03-14T02:43:10;11.25;;;2.45;;
62030;SDS011;62035;52.094;5.112;2023-03-14T02:45:40;9.27;;;2.08;;
62030;SDS011;62035;52.094;5.112;2023-03-14T02:48:13;13.77;;;2.08;;
62030;SDS011;62035;52.094;5.112;2023-03-14T02:50:45;10.05;;;2.40;;
62030;SDS011;62035;52.094;5.112;2023-03-14T02:53:18;8.45;;;1.88;;
62030;SDS011;62035;52.094;5.112;2023-03-14T02:55:50;10.63;;;2.03;;
62030;SDS011;62035;52.094;5.112;2023-03-14T02:58:19;15.05;;;2.35;;
62030;SDS011;62035;52.094;5.112;2023-03-14T03:00:47;13.98;;;2.15;;
62030;SDS011;62035;52.094;5.112;2023-03-14T03:03:16;13.52;;;2.47;;
62030;SDS011;62035;52.094;5.112;2023-03-14T03:05:47;10.95;;;2.35;;
62030;SDS011;62035;52.094;5.112;2023-03-14T03:10:43;8.23;;;2.00;;
62030;SDS011;62035;52.094;5.112;2023-03-14T03:13:11;7.93;;;2.05;;
62030;SDS011;62035;52.094;5.112;2023-03-14T03:15:40;15.50;;;2.33;;
62030;SDS011;62035;52.094;5.112;2023-03-14T03:18:08;11.88;;;2.28;;
62030;SDS011;62035;52.094;5.112;2023-03-14T03:20:36;11.85;;;2.45;;
62030;SDS011;62035;52.094;5.112;2023-03-14T03:23:04;11.25;;;2.20;;
62030;SDS011;62035;52.094;5.112;2023-03-14T03:25:32;10.30;;;1.98;;
62030;SDS011;62035;52.094;5.112;2023-03-14T03:28:00;8.80;;;2.20;;
62030;SDS011;62035;52.094;5.112;2023-03-14T03:30:27;9.95;;;2.33;;
62030;SDS011;62035;52.094;5.112;2023-03-14T03:32:56;12.05;;;2.70;;
62030;SDS011;62035;52.094;5.112;2023-03-14T03:35:24;7.47;;;2.15;;
62030;SDS011;62035;52.094;5.112;2023-03-14T03:37:52;11.90;;;1.98;;
62030;SDS011;62035;52.094;5.112;2023-03-14T03:40:19;14.57;;;2.33;;
62030;SDS011;62035;52.094;5.112;2023-03-14T03:42:47;13.32;;;2.67;;
62030;SDS011;62035;52.094;5.112;2023-03-14T03:45:14;13.80;;;2.17;;
62030;SDS011;62035;52.094;5.112;2023-03-14T03:47:42;8.57;;;2.33;;
62030;SDS011;62035;52.094;5.112;2023-03-14T03:50:11;9.30;;;2.28;;
62030;SDS011;62035;52.094;5.112;2023-03-14T03:52:39;15.93;;;2.65;;
62030;SDS011;62035;52.094;5.112;2023-03-14T03:55:07;7.57;;;1.88;;
62030;SDS011;62035;52.094;5.112;2023-03-14T03:57:35;7.93;;;2.42;;
62030;SDS011;62035;52.094;5.112;2023-03-14T04:00:03;14.45;;;2.60;;
62030;SDS011;62035;52.094;5.112;2023-03-14T04:02:34;9.90;;;2.10;;
62030;SDS011;62035;52.094;5.112;2023-03-14T04:05:02;11.98;;;2.40;;
62030;SDS011;62035;52.094;5.112;2023-03-14T04:07:32;9.57;;;2.35;;
62030;SDS011;62035;52.094;5.112;2023-03-14T04:10:00;17.85;;;2.80;;
62030;SDS011;62035;52.094;5.112;2023-03-14T04:12:28;10.27;;;2.08;;
62030;SDS011;62035;52.094;5.112;2023-03-14T04:14:55;12.70;;;2.40;;
62030;SDS011;62035;52.094;5.112;2023-03-14T04:17:23;15.32;;;2.00;;
62030;SDS011;62035;52.094;5.112;2023-03-14T04:19:50;14.25;;;2.63;;
62030;SDS011;62035;52.094;5.112;2023-03-14T04:22:19;10.32;;;2.53;;
62030;SDS011;62035;52.094;5.112;2023-03-14T04:24:49;12.70;;;2.13;;
62030;SDS011;62035;52.094;5.112;2023-03-14T04:27:16;11.63;;;2.47;;
62030;SDS011;62035;52.094;5.112;2023-03-14T04:29:44;11.55;;;2.97;;
62030;SDS011;62035;52.094;5.112;2023-03-14T04:32:12;10.80;;;2.20;;
62030;SDS011;62035;52.094;5.112;2023-03-14T04:34:39;8.40;;;2.05;;
62030;SDS011;62035;52.094;5.112;2023-03-14T04:37:08;10.45;;;2.40;;
62030;SDS011;62035;52.094;5.112;2023-03-14T04:39:35;12.50;;;2.17;;
62030;SDS011;62035;52.094;5.112;2023-03-14T04:42:04;9.63;;;2.00;;
62030;SDS011;62035;52.094;5.112;2023-03-14T04:44:32;8.15;;;1.83;;
62030;SDS011;62035;52.094;5.112;2023-03-14T04:47:00;12.75;;;2.38;;
62030;SDS011;62035;52.094;5.112;2023-03-14T04:49:27;9.10;;;2.40;;
62030;SDS011;62035;52.094;5.112;2023-03-14T04:51:55;11.80;;;2.38;;
62030;SDS011;62035;52.094;5.112;2023-03-14T04:54:23;10.25;;;2.17;;
62030;SDS011;62035;52.094;5.112;2023-03-14T04:56:50;13.68;;;2.50;;
62030;SDS011;62035;52.094;5.112;2023-03-14T04:59:19;13.82;;;2.25;;
62030;SDS011;62035;52.094;5.112;2023-03-14T05:01:47;11.00;;;2.75;;
62030;SDS011;62035;52.094;5.112;2023-03-14T05:04:15;8.73;;;2.05;;
62030;SDS011;62035;52.094;5.112;2023-03-14T05:06:43;12.60;;;2.63;;
62030;SDS011;62035;52.094;5.112;2023-03-14T05:09:10;11.40;;;2.60;;
62030;SDS011;62035;52.094;5.112;2023-03-14T05:11:38;12.63;;;2.72;;
62030;SDS011;62035;52.094;5.112;2023-03-14T05:14:05;13.25;;;2.78;;
62030;SDS011;62035;52.094;5.112;2023-03-14T05:16:35;8.65;;;2.70;;
62030;SDS011;62035;52.094;5.112;2023-03-14T05:19:02;9.00;;;2.33;;
62030;SDS011;62035;52.094;5.112;2023-03-14T05:21:30;7.03;;;2.05;;
62030;SDS011;62035;52.094;5.112;2023-03-14T05:23:57;10.48;;;2.75;;
62030;SDS011;62035;52.094;5.112;2023-03-14T05:26:25;12.95;;;3.60;;
62030;SDS011;62035;52.094;5.112;2023-03-14T05:28:53;10.10;;;2.83;;
62030;SDS011;62035;52.094;5.112;2023-03-14T05:31:20;8.25;;;2.58;;
62030;SDS011;62035;52.094;5.112;2023-03-14T05:33:49;6.63;;;2.60;;
62030;SDS011;62035;52.094;5.112;2023-03-14T05:36:17;11.98;;;3.00;;
62030;SDS011;62035;52.094;5.112;2023-03-14T05:38:44;8.43;;;2.47;;
62030;SDS011;62035;52.094;5.112;2023-03-14T05:41:12;9.48;;;3.50;;
62030;SDS011;62035;52.094;5.112;2023-03-14T05:43:40;10.45;;;3.47;;
62030;SDS011;62035;52.094;5.112;2023-03-14T05:46:07;10.55;;;3.20;;
62030;SDS011;62035;52.094;5.112;2023-03-14T05:48:35;14.18;;;4.10;;
62030;SDS011;62035;52.094;5.112;2023-03-14T05:51:04;8.20;;;3.35;;
62030;SDS011;62035;52.094;5.112;2023-03-14T05:53:32;16.80;;;4.00;;
62030;SDS011;62035;52.094;5.112;2023-03-14T05:56:00;9.40;;;4.10;;
62030;SDS011;62035;52.094;5.112;2023-03-14T05:58:27;10.93;;;3.80;;
62030;SDS011;62035;52.094;5.112;2023-03-14T06:00:55;8.75;;;3.60;;
62030;SDS011;62035;52.094;5.112;2023-03-14T06:03:23;11.25;;;3.55;;
62030;SDS011;62035;52.094;5.112;2023-03-14T06:05:50;7.40;;;4.05;;
62030;SDS011;62035;52.094;5.112;2023-03-14T06:08:19;10.18;;;4.35;;
62030;SDS011;62035;52.094;5.112;2023-03-14T06:10:47;9.48;;;3.88;;
62030;SDS011;62035;52.094;5.112;2023-03-14T06:13:15;11.90;;;4.53;;
62030;SDS011;62035;52.094;5.112;2023-03-14T06:15:42;9.82;;;4.20;;
62030;SDS011;62035;52.094;5.112;2023-03-14T06:18:10;12.55;;;4.13;;
62030;SDS011;62035;52.094;5.112;2023-03-14T06:20:39;10.82;;;3.15;;
62030;SDS011;62035;52.094;5.112;2023-03-14T06:23:08;9.65;;;2.10;;
62030;SDS011;62035;52.094;5.112;2023-03-14T06:25:37;7.80;;;1.83;;
62030;SDS011;62035;52.094;5.112;2023-03-14T06:28:05;4.15;;;1.52;;
62030;SDS011;62035;52.094;5.112;2023-03-14T06:30:32;3.65;;;1.42;;
62030;SDS011;62035;52.094;5.112;2023-03-14T06:33:00;4.78;;;1.60;;
62030;SDS011;62035;52.094;5.112;2023-03-14T06:35:28;3.50;;;1.40;;
62030;SDS011;62035;52.094;5.112;2023-03-14T06:37:55;9.02;;;1.40;;
62030;SDS011;62035;52.094;5.112;2023-03-14T06:40:23;3.60;;;1.17;;
62030;SDS011;62035;52.094;5.112;2023-03-14T06:42:52;7.03;;;1.40;;
62030;SDS011;62035;52.094;5.112;2023-03-14T06:45:20;3.60;;;1.17;;
62030;SDS011;62035;52.094;5.112;2023-03-14T06:47:47;3.63;;;1.25;;
62030;SDS011;62035;52.094;5.112;2023-03-14T06:50:15;5.88;;;1.25;;
62030;SDS011;62035;52.094;5.112;2023-03-14T06:52:42;3.17;;;1.23;;
62030;SDS011;62035;52.094;5.112;2023-03-14T06:55:13;3.33;;;1.30;;
62030;SDS011;62035;52.094;5.112;2023-03-14T06:57:42;3.45;;;1.35;;
62030;SDS011;62035;52.094;5.112;2023-03-14T07:00:12;6.53;;;1.98;;
62030;SDS011;62035;52.094;5.112;2023-03-14T07:02:41;8.00;;;2.08;;
62030;SDS011;62035;52.094;5.112;2023-03-14T07:05:08;6.97;;;1.75;;
62030;SDS011;62035;52.094;5.112;2023-03-14T07:07:37;6.22;;;1.65;;
62030;SDS011;62035;52.094;5.112;2023-03-14T07:10:05;5.50;;;1.80;;
62030;SDS011;62035;52.094;5.112;2023-03-14T07:12:34;7.43;;;1.70;;
62030;SDS011;62035;52.094;5.112;2023-03-14T07:15:02;3.13;;;1.30;;
62030;SDS011;62035;52.094;5.112;2023-03-14T07:17:31;4.68;;;1.52;;
62030;SDS011;62035;52.094;5.112;2023-03-14T07:19:59;9.27;;;2.05;;
62030;SDS011;62035;52.094;5.112;2023-03-14T07:22:26;5.90;;;1.60;;
62030;SDS011;62035;52.094;5.112;2023-03-14T07:24:54;7.80;;;1.30;;
62030;SDS011;62035;52.094;5.112;2023-03-14T07:27:21;5.22;;;1.33;;
62030;SDS011;62035;52.094;5.112;2023-03-14T07:29:49;7.75;;;1.63;;
62030;SDS011;62035;52.094;5.112;2023-03-14T07:32:17;3.17;;;1.00;;
62030;SDS011;62035;52.094;5.112;2023-03-14T07:34:46;4.82;;;1.38;;
62030;SDS011;62035;52.094;5.112;2023-03-14T07:37:13;3.85;;;1.30;;
62030;SDS011;62035;52.094;5.112;2023-03-14T07:39:41;7.47;;;1.48;;
62030;SDS011;62035;52.094;5.112;2023-03-14T07:42:08;6.47;;;1.42;;
62030;SDS011;62035;52.094;5.112;2023-03-14T07:44:36;9.75;;;2.08;;
62030;SDS011;62035;52.094;5.112;2023-03-14T07:47:04;6.05;;;1.70;;
62030;SDS011;62035;52.094;5.112;2023-03-14T07:49:32;7.78;;;1.35;;
62030;SDS011;62035;52.094;5.112;2023-03-14T07:52:01;6.25;;;1.20;;
62030;SDS011;62035;52.094;5.112;2023-03-14T07:54:28;2.90;;;1.10;;
62030;SDS011;62035;52.094;5.112;2023-03-14T07:56:56;4.45;;;1.63;;
62030;SDS011;62035;52.094;5.112;2023-03-14T07:59:26;6.60;;;1.23;;
62030;SDS011;62035;52.094;5.112;2023-03-14T08:01:54;4.75;;;1.30;;
62030;SDS011;62035;52.094;5.112;2023-03-14T08:04:21;4.85;;;1.08;;
62030;SDS011;62035;52.094;5.112;2023-03-14T08:06:49;5.05;;;0.98;;
62030;SDS011;62035;52.094;5.112;2023-03-14T08:09:18;5.75;;;1.38;;
62030;SDS011;62035;52.094;5.112;2023-03-14T08:11:45;4.20;;;1.08;;
62030;SDS011;62035;52.094;5.112;2023-03-14T08:14:13;6.55;;;1.17;;
62030;SDS011;62035;52.094;5.112;2023-03-14T08:16:40;6.32;;;1.45;;
62030;SDS011;62035;52.094;5.112;2023-03-14T08:19:08;4.88;;;1.10;;
62030;SDS011;62035;52.094;5.112;2023-03-14T08:21:36;5.60;;;1.27;;
62030;SDS011;62035;52.094;5.112;2023-03-14T08:24:03;5.85;;;1.38;;
62030;SDS011;62035;52.094;5.112;2023-03-14T08:26:33;5.28;;;1.00;;
62030;SDS011;62035;52.094;5.112;2023-03-14T08:29:00;9.93;;;1.55;;
62030;SDS011;62035;52.094;5.112;2023-03-14T08:31:30;5.35;;;1.00;;
62030;SDS011;62035;52.094;5.112;2023-03-14T08:33:57;7.82;;;1.27;;
62030;SDS011;62035;52.094;5.112;2023-03-14T08:36:26;5.70;;;1.20;;
62030;SDS011;62035;52.094;5.112;2023-03-14T08:38:53;6.45;;;1.58;;
62030;SDS011;62035;52.094;5.112;2023-03-14T08:41:21;8.77;;;1.25;;
62030;SDS011;62035;52.094;5.112;2023-03-14T08:43:50;9.13;;;1.30;;
62030;SDS011;62035;52.094;5.112;2023-03-14T08:46:17;3.13;;;0.80;;
62030;SDS011;62035;52.094;5.112;2023-03-14T08:48:45;4.63;;;0.98;;
62030;SDS011;62035;52.094;5.112;2023-03-14T08:51:13;6.40;;;0.82;;
62030;SDS011;62035;52.094;5.112;2023-03-14T08:53:41;8.75;;;1.27;;
62030;SDS011;62035;52.094;5.112;2023-03-14T08:56:09;2.92;;;1.10;;
62030;SDS011;62035;52.094;5.112;2023-03-14T08:58:37;6.78;;;1.17;;
62030;SDS011;62035;52.094;5.112;2023-03-14T09:01:07;5.22;;;1.20;;
62030;SDS011;62035;52.094;5.112;2023-03-14T09:03:36;7.25;;;1.42;;
62030;SDS011;62035;52.094;5.112;2023-03-14T09:06:06;11.05;;;1.52;;
62030;SDS011;62035;52.094;5.112;2023-03-14T09:08:35;6.43;;;1.40;;
62030;SDS011;62035;52.094;5.112;2023-03-14T09:11:06;13.85;;;1.50;;
62030;SDS011;62035;52.094;5.112;2023-03-14T09:13:35;10.32;;;1.38;;
62030;SDS011;62035;52.094;5.112;2023-03-14T09:16:03;7.43;;;1.80;;
62030;SDS011;62035;52.094;5.112;2023-03-14T09:18:33;7.97;;;1.48;;
62030;SDS011;62035;52.094;5.112;2023-03-14T09:21:01;11.93;;;1.35;;
62030;SDS011;62035;52.094;5.112;2023-03-14T09:23:29;11.18;;;1.55;;
62030;SDS011;62035;52.094;5.112;2023-03-14T09:25:57;13.75;;;2.00;;
62030;SDS011;62035;52.094;5.112;2023-03-14T09:28:25;8.63;;;1.50;;
62030;SDS011;62035;52.094;5.112;2023-03-14T09:30:53;12.13;;;1.95;;
62030;SDS011;62035;52.094;5.112;2023-03-14T09:33:22;14.98;;;2.50;;
62030;SDS011;62035;52.094;5.112;2023-03-14T09:35:50;17.23;;;2.40;;
62030;SDS011;62035;52.094;5.112;2023-03-14T09:38:18;19.50;;;2.20;;
62030;SDS011;62035;52.094;5.112;2023-03-14T09:40:46;15.40;;;2.22;;
62030;SDS011;62035;52.094;5.112;2023-03-14T09:43:15;15.25;;;2.45;;
62030;SDS011;62035;52.094;5.112;2023-03-14T09:45:44;12.85;;;1.80;;
62030;SDS011;62035;52.094;5.112;2023-03-14T09:48:16;12.65;;;2.80;;
62030;SDS011;62035;52.094;5.112;2023-03-14T09:50:50;16.25;;;2.97;;
62030;SDS011;62035;52.094;5.112;2023-03-14T09:53:22;18.13;;;2.33;;
62030;SDS011;62035;52.094;5.112;2023-03-14T09:55:54;26.55;;;2.85;;
62030;SDS011;62035;52.094;5.112;2023-03-14T09:58:26;20.75;;;3.00;;
62030;SDS011;62035;52.094;5.112;2023-03-14T10:00:55;12.68;;;2.53;;
62030;SDS011;62035;52.094;5.112;2023-03-14T10:03:26;16.55;;;3.45;;
62030;SDS011;62035;52.094;5.112;2023-03-14T10:06:00;23.13;;;2.75;;
62030;SDS011;62035;52.094;5.112;2023-03-14T10:08:30;20.25;;;2.72;;
62030;SDS011;62035;52.094;5.112;2023-03-14T10:10:57;19.38;;;3.00;;
62030;SDS011;62035;52.094;5.112;2023-03-14T10:13:26;15.05;;;2.60;;
62030;SDS011;62035;52.094;5.112;2023-03-14T10:15:55;21.70;;;2.63;;
62030;SDS011;62035;52.094;5.112;2023-03-14T10:18:28;14.60;;;2.28;;
62030;SDS011;62035;52.094;5.112;2023-03-14T10:21:05;19.08;;;2.80;;
62030;SDS011;62035;52.094;5.112;2023-03-14T10:23:43;18.90;;;2.70;;
62030;SDS011;62035;52.094;5.112;2023-03-14T10:26:12;18.88;;;3.00;;
62030;SDS011;62035;52.094;5.112;2023-03-14T10:28:45;13.82;;;2.90;;
62030;SDS011;62035;52.094;5.112;2023-03-14T10:31:15;26.35;;;3.13;;
62030;SDS011;62035;52.094;5.112;2023-03-14T10:33:42;15.60;;;3.25;;
62030;SDS011;62035;52.094;5.112;2023-03-14T10:36:28;16.95;;;3.08;;
62030;SDS011;62035;52.094;5.112;2023-03-14T10:41:50;12.23;;;2.20;;
62030;SDS011;62035;52.094;5.112;2023-03-14T10:44:21;23.17;;;3.38;;
62030;SDS011;62035;52.094;5.112;2023-03-14T10:46:55;14.68;;;3.20;;
62030;SDS011;62035;52.094;5.112;2023-03-14T10:49:27;18.13;;;2.80;;
62030;SDS011;62035;52.094;5.112;2023-03-14T10:52:02;20.80;;;2.92;;
62030;SDS011;62035;52.094;5.112;2023-03-14T10:54:41;17.80;;;2.72;;
62030;SDS011;62035;52.094;5.112;2023-03-14T10:57:14;19.02;;;2.90;;
62030;SDS011;62035;52.094;5.112;2023-03-14T10:59:42;20.75;;;2.90;;
62030;SDS011;62035;52.094;5.112;2023-03-14T11:02:15;17.17;;;2.80;;
62030;SDS011;62035;52.094;5.112;2023-03-14T11:05:13;14.25;;;2.45;;
62030;SDS011;62035;52.094;5.112;2023-03-14T11:07:55;14.95;;;2.60;;
62030;SDS011;62035;52.094;5.112;2023-03-14T11:10:31;19.70;;;2.55;;
62030;SDS011;62035;52.094;5.112;2023-03-14T11:13:03;17.75;;;2.70;;
62030;SDS011;62035;52.094;5.112;2023-03-14T11:15:51;17.17;;;2.75;;
62030;SDS011;62035;52.094;5.112;2023-03-14T11:18:39;17.83;;;2.42;;
62030;SDS011;62035;52.094;5.112;2023-03-14T11:21:41;18.75;;;3.50;;
62030;SDS011;62035;52.094;5.112;2023-03-14T11:24:21;17.48;;;2.30;;
62030;SDS011;62035;52.094;5.112;2023-03-14T11:27:15;17.70;;;2.35;;
62030;SDS011;62035;52.094;5.112;2023-03-14T11:29:51;22.60;;;2.90;;
62030;SDS011;62035;52.094;5.112;2023-03-14T11:32:26;15.55;;;2.15;;
62030;SDS011;62035;52.094;5.112;2023-03-14T11:35:14;20.98;;;2.47;;
62030;SDS011;62035;52.094;5.112;2023-03-14T11:37:52;13.63;;;2.38;;
62030;SDS011;62035;52.094;5.112;2023-03-14T11:40:31;15.13;;;2.33;;
62030;SDS011;62035;52.094;5.112;2023-03-14T11:43:03;10.98;;;2.22;;
62030;SDS011;62035;52.094;5.112;2023-03-14T11:45:39;13.98;;;2.30;;
62030;SDS011;62035;52.094;5.112;2023-03-14T11:48:13;16.42;;;2.50;;
62030;SDS011;62035;52.094;5.112;2023-03-14T11:50:52;14.73;;;2.22;;
62030;SDS011;62035;52.094;5.112;2023-03-14T11:53:26;12.32;;;1.95;;
62030;SDS011;62035;52.094;5.112;2023-03-14T11:56:13;15.98;;;1.75;;
62030;SDS011;62035;52.094;5.112;2023-03-14T11:58:52;12.77;;;2.28;;
62030;SDS011;62035;52.094;5.112;2023-03-14T12:01:29;10.38;;;1.92;;
62030;SDS011;62035;52.094;5.112;2023-03-14T12:04:15;13.10;;;1.90;;
62030;SDS011;62035;52.094;5.112;2023-03-14T12:06:58;20.35;;;2.58;;
62030;SDS011;62035;52.094;5.112;2023-03-14T12:09:36;10.60;;;1.88;;
62030;SDS011;62035;52.094;5.112;2023-03-14T12:12:05;9.32;;;2.40;;
62030;SDS011;62035;52.094;5.112;2023-03-14T12:14:43;10.23;;;1.95;;
62030;SDS011;62035;52.094;5.112;2023-03-14T12:17:19;15.15;;;2.30;;
62030;SDS011;62035;52.094;5.112;2023-03-14T12:19:59;13.50;;;2.10;;
62030;SDS011;62035;52.094;5.112;2023-03-14T12:22:33;9.85;;;1.88;;
62030;SDS011;62035;52.094;5.112;2023-03-14T12:25:15;16.65;;;2.00;;
62030;SDS011;62035;52.094;5.112;2023-03-14T12:30:48;10.60;;;1.88;;
62030;SDS011;62035;52.094;5.112;2023-03-14T12:39:19;8.10;;;2.00;;
62030;SDS011;62035;52.094;5.112;2023-03-14T12:42:01;10.00;;;1.67;;
62030;SDS011;62035;52.094;5.112;2023-03-14T12:44:43;14.38;;;1.95;;
62030;SDS011;62035;52.094;5.112;2023-03-14T12:50:36;8.60;;;1.33;;
62030;SDS011;62035;52.094;5.112;2023-03-14T12:56:45;6.35;;;1.50;;
62030;SDS011;62035;52.094;5.112;2023-03-14T12:59:29;7.18;;;1.45;;
62030;SDS011;62035;52.094;5.112;2023-03-14T13:02:09;3.80;;;1.45;;
62030;SDS011;62035;52.094;5.112;2023-03-14T13:05:08;6.97;;;2.00;;
62030;SDS011;62035;52.094;5.112;2023-03-14T13:10:39;5.35;;;1.52;;
62030;SDS011;62035;52.094;5.112;2023-03-14T13:13:16;7.15;;;1.70;;
62030;SDS011;62035;52.094;5.112;2023-03-14T13:15:49;11.50;;;1.38;;
62030;SDS011;62035;52.094;5.112;2023-03-14T13:18:26;5.18;;;1.33;;
62030;SDS011;62035;52.094;5.112;2023-03-14T13:20:58;10.43;;;1.63;;
62030;SDS011;62035;52.094;5.112;2023-03-14T13:23:31;9.65;;;1.85;;
62030;SDS011;62035;52.094;5.112;2023-03-14T13:26:02;14.95;;;2.40;;
62030;SDS011;62035;52.094;5.112;2023-03-14T13:28:32;8.75;;;1.63;;
62030;SDS011;62035;52.094;5.112;2023-03-14T13:31:02;7.68;;;1.40;;
62030;SDS011;62035;52.094;5.112;2023-03-14T13:33:33;6.47;;;1.52;;
62030;SDS011;62035;52.094;5.112;2023-03-14T13:36:02;7.53;;;1.55;;
62030;SDS011;62035;52.094;5.112;2023-03-14T13:38:32;11.88;;;1.65;;
62030;SDS011;62035;52.094;5.112;2023-03-14T13:41:03;12.77;;;1.90;;
62030;SDS011;62035;52.094;5.112;2023-03-14T13:43:34;9.60;;;1.70;;
62030;SDS011;62035;52.094;5.112;2023-03-14T13:46:10;13.63;;;1.75;;
62030;SDS011;62035;52.094;5.112;2023-03-14T13:48:43;8.32;;;1.73;;
62030;SDS011;62035;52.094;5.112;2023-03-14T13:51:15;10.60;;;1.80;;
62030;SDS011;62035;52.094;5.112;2023-03-14T13:56:17;11.15;;;1.58;;
62030;SDS011;62035;52.094;5.112;2023-03-14T13:58:46;7.90;;;1.42;;
62030;SDS011;62035;52.094;5.112;2023-03-14T14:01:15;10.65;;;1.70;;
62030;SDS011;62035;52.094;5.112;2023-03-14T14:03:49;12.25;;;1.90;;
62030;SDS011;62035;52.094;5.112;2023-03-14T14:06:23;8.95;;;1.85;;
62030;SDS011;62035;52.094;5.112;2023-03-14T14:08:57;7.60;;;1.70;;
62030;SDS011;62035;52.094;5.112;2023-03-14T14:11:32;13.65;;;1.95;;
62030;SDS011;62035;52.094;5.112;2023-03-14T14:14:10;11.73;;;1.77;;
62030;SDS011;62035;52.094;5.112;2023-03-14T14:16:46;14.52;;;1.80;;
62030;SDS011;62035;52.094;5.112;2023-03-14T14:19:19;13.30;;;1.80;;
62030;SDS011;62035;52.094;5.112;2023-03-14T14:21:50;13.38;;;1.55;;
62030;SDS011;62035;52.094;5.112;2023-03-14T14:24:19;6.57;;;1.58;;
62030;SDS011;62035;52.094;5.112;2023-03-14T14:26:51;5.72;;;1.50;;
62030;SDS011;62035;52.094;5.112;2023-03-14T14:29:26;5.93;;;1.20;;
62030;SDS011;62035;52.094;5.112;2023-03-14T14:31:59;9.68;;;1.60;;
62030;SDS011;62035;52.094;5.112;2023-03-14T14:34:32;9.65;;;1.60;;
62030;SDS011;62035;52.094;5.112;2023-03-14T14:37:14;9.70;;;1.65;;
62030;SDS011;62035;52.094;5.112;2023-03-14T14:39:47;7.47;;;1.70;;
62030;SDS011;62035;52.094;5.112;2023-03-14T14:42:19;11.13;;;1.52;;
62030;SDS011;62035;52.094;5.112;2023-03-14T14:44:49;10.83;;;1.93;;
62030;SDS011;62035;52.094;5.112;2023-03-14T14:47:19;6.38;;;1.30;;
62030;SDS011;62035;52.094;5.112;2023-03-14T14:49:53;3.38;;;1.40;;
62030;SDS011;62035;52.094;5.112;2023-03-14T14:52:30;8.15;;;1.77;;
62030;SDS011;62035;52.094;5.112;2023-03-14T14:55:12;9.35;;;2.10;;
62030;SDS011;62035;52.094;5.112;2023-03-14T14:57:48;10.32;;;1.88;;
62030;SDS011;62035;52.094;5.112;2023-03-14T15:00:18;5.18;;;1.55;;
62030;SDS011;62035;52.094;5.112;2023-03-14T15:02:50;7.28;;;1.65;;
62030;SDS011;62035;52.094;5.112;2023-03-14T15:05:22;10.02;;;1.67;;
62030;SDS011;62035;52.094;5.112;2023-03-14T15:07:52;9.73;;;1.40;;
62030;SDS011;62035;52.094;5.112;2023-03-14T15:10:21;8.00;;;1.48;;
62030;SDS011;62035;52.094;5.112;2023-03-14T15:12:51;4.60;;;1.40;;
62030;SDS011;62035;52.094;5.112;2023-03-14T15:15:19;11.30;;;1.80;;
62030;SDS011;62035;52.094;5.112;2023-03-14T15:17:47;7.97;;;1.27;;
62030;SDS011;62035;52.094;5.112;2023-03-14T15:20:15;6.53;;;1.20;;
62030;SDS011;62035;52.094;5.112;2023-03-14T15:22:46;7.75;;;1.75;;
62030;SDS011;62035;52.094;5.112;2023-03-14T15:25:14;5.57;;;1.58;;
62030;SDS011;62035;52.094;5.112;2023-03-14T15:27:43;5.95;;;1.25;;